createdAt,value
2023-05-05T00:39:07.711Z,1.00
2023-05-05T00:46:34.066Z,1.00
2023-05-05T00:53:57.545Z,1.00
2023-05-05T00:56:27.500Z,1.00
2023-05-05T01:06:42.019Z,1.00
2023-05-05T01:09:14.957Z,1.00
2023-05-05T01:11:51.779Z,1.00
2023-05-05T01:14:33.203Z,1.00
2023-05-05T01:17:08.192Z,1.00
2023-05-05T01:20:02.088Z,1.00
2023-05-05T01:22:38.394Z,1.00
2023-05-05T01:25:14.646Z,1.00
2023-05-05T01:27:56.061Z,1.00
2023-05-05T01:30:35.617Z,1.00
2023-05-05T01:33:08.441Z,1.00
2023-05-05T01:35:44.000Z,1.00
2023-05-05T01:38:30.484Z,1.00
2023-05-05T01:41:12.801Z,1.00
2023-05-05T01:43:44.002Z,1.00
2023-05-05T01:46:13.370Z,1.00
2023-05-05T01:48:44.303Z,1.00
2023-05-05T01:51:13.252Z,1.00
2023-05-05T01:53:41.802Z,1.00
2023-05-05T01:56:11.867Z,1.00
2023-05-05T01:58:41.845Z,1.00
2023-05-05T02:03:39.231Z,1.00
2023-05-05T02:06:08.554Z,1.00
2023-05-05T02:08:39.502Z,1.00
2023-05-05T02:11:09.237Z,1.00
2023-05-05T02:13:40.153Z,1.00
2023-05-05T02:16:08.506Z,1.00
2023-05-05T02:18:36.866Z,1.00
2023-05-05T02:23:33.565Z,1.00
2023-05-05T02:26:06.224Z,1.00
2023-05-05T02:28:55.796Z,1.00
2023-05-05T02:31:26.463Z,1.00
2023-05-05T02:33:57.194Z,1.00
2023-05-05T02:36:28.744Z,1.00
2023-05-05T02:39:19.837Z,1.00
2023-05-05T02:41:49.723Z,1.00
2023-05-05T02:44:26.234Z,1.00
2023-05-05T02:46:55.012Z,1.00
2023-05-05T02:49:24.563Z,1.00
2023-05-05T02:51:58.182Z,1.00
2023-05-05T02:54:33.289Z,1.00
2023-05-05T02:57:04.111Z,1.00
2023-05-05T02:59:42.494Z,1.00
2023-05-05T03:02:15.214Z,1.00
2023-05-05T03:04:48.770Z,1.00
2023-05-05T03:07:25.197Z,1.00
2023-05-05T03:10:32.309Z,1.00
2023-05-05T03:13:05.001Z,1.00
2023-05-05T03:15:43.128Z,1.00
2023-05-05T03:18:12.449Z,1.00
2023-05-05T03:23:15.620Z,1.00
2023-05-05T03:25:46.434Z,1.00
2023-05-05T03:48:28.899Z,1.00
2023-05-05T03:58:22.970Z,1.00
2023-05-05T04:00:50.596Z,1.00
2023-05-05T04:08:16.424Z,1.00
2023-05-05T04:13:12.066Z,1.00
2023-05-05T04:15:45.199Z,1.00
2023-05-05T04:23:10.989Z,1.00
2023-05-05T04:45:29.420Z,1.00
2023-05-05T04:50:25.691Z,1.00
2023-05-05T05:20:05.143Z,1.00
2023-05-05T05:25:06.509Z,1.00
2023-05-05T05:37:31.700Z,1.00
2023-05-05T05:47:28.327Z,1.00
2023-05-05T06:14:41.966Z,1.00
2023-05-05T06:19:42.293Z,1.00
2023-05-05T06:22:10.208Z,1.00
2023-05-05T06:24:38.312Z,1.00
2023-05-05T06:27:05.718Z,1.00
2023-05-05T06:29:33.378Z,1.00
2023-05-05T06:39:24.616Z,1.00
2023-05-05T06:41:52.085Z,1.00
2023-05-05T07:06:29.432Z,1.00
2023-05-05T07:08:57.987Z,1.00
2023-05-05T07:23:46.318Z,1.00
2023-05-05T07:26:15.257Z,1.00
2023-05-05T07:31:11.500Z,1.00
2023-05-05T07:33:39.229Z,1.00
2023-05-05T07:36:06.707Z,1.00
2023-05-05T07:58:18.805Z,1.00
2023-05-05T08:00:46.218Z,1.00
2023-05-05T08:03:13.906Z,1.00
2023-05-05T08:05:41.324Z,1.00
2023-05-05T08:08:08.985Z,1.00
2023-05-05T08:10:36.236Z,1.00
2023-05-05T08:15:31.861Z,1.00
2023-05-05T08:17:59.322Z,1.00
2023-05-05T08:20:28.953Z,1.00
2023-05-05T08:22:56.484Z,1.00
2023-05-05T08:25:24.290Z,1.00
2023-05-05T08:27:51.677Z,1.00
2023-05-05T08:30:21.049Z,1.00
2023-05-05T08:32:48.992Z,1.00
2023-05-05T08:35:16.356Z,1.00
2023-05-05T08:37:43.924Z,1.00
2023-05-05T08:40:14.735Z,1.00
2023-05-05T08:42:42.715Z,1.00
2023-05-05T08:45:11.633Z,1.00
2023-05-05T08:47:40.265Z,1.00
2023-05-05T08:50:11.069Z,1.00
2023-05-05T08:52:45.675Z,1.00
2023-05-05T08:55:24.743Z,1.00
2023-05-05T08:57:57.971Z,1.00
2023-05-05T09:00:29.461Z,1.00
2023-05-05T09:02:59.339Z,1.00
2023-05-05T09:05:27.793Z,1.00
2023-05-05T09:07:55.939Z,1.00
2023-05-05T09:10:24.822Z,1.00
2023-05-05T09:12:53.129Z,1.00
2023-05-05T09:17:48.750Z,1.00
2023-05-05T09:22:46.870Z,1.00
2023-05-05T09:25:16.337Z,1.00
2023-05-05T09:27:47.528Z,1.00
2023-05-05T09:30:17.886Z,1.00
2023-05-05T09:32:46.741Z,1.00
2023-05-05T09:35:14.780Z,1.00
2023-05-05T09:37:42.804Z,1.00
2023-05-05T09:40:11.052Z,1.00
2023-05-05T09:42:40.079Z,1.00
2023-05-05T09:45:19.703Z,1.00
2023-05-05T09:47:48.279Z,1.00
2023-05-05T09:50:18.992Z,1.00
2023-05-05T09:53:01.184Z,1.00
2023-05-05T09:55:29.195Z,1.00
2023-05-05T09:57:56.845Z,1.00
2023-05-05T10:00:38.950Z,1.00
2023-05-05T10:03:06.911Z,1.00
2023-05-05T10:05:47.425Z,1.00
2023-05-05T10:08:15.081Z,1.00
2023-05-05T10:10:52.591Z,1.00
2023-05-05T10:13:22.462Z,99.90
2023-05-05T10:15:52.411Z,99.90
2023-05-05T10:18:22.253Z,99.90
2023-05-05T10:21:02.296Z,99.90
2023-05-05T10:23:55.181Z,99.90
2023-05-05T10:26:23.489Z,99.90
2023-05-05T10:28:55.745Z,99.90
2023-05-05T10:31:49.306Z,99.90
2023-05-05T10:34:41.012Z,99.90
2023-05-05T10:37:08.768Z,99.90
2023-05-05T10:39:38.033Z,99.90
2023-05-05T10:42:05.343Z,99.90
2023-05-05T10:44:34.014Z,99.90
2023-05-05T10:47:03.331Z,99.90
2023-05-05T10:50:09.810Z,99.90
2023-05-05T10:53:19.109Z,99.90
2023-05-05T10:55:54.830Z,99.90
2023-05-05T10:58:59.263Z,99.90
2023-05-05T11:01:33.432Z,99.90
2023-05-05T11:04:24.084Z,99.90
2023-05-05T11:07:12.708Z,99.90
2023-05-05T11:09:56.499Z,99.90
2023-05-05T11:12:24.412Z,99.90
2023-05-05T11:15:31.839Z,99.90
2023-05-05T11:18:03.931Z,99.90
2023-05-05T11:21:00.012Z,99.90
2023-05-05T11:23:29.296Z,99.90
2023-05-05T11:26:00.444Z,99.90
2023-05-05T11:28:31.240Z,99.90
2023-05-05T11:31:00.029Z,99.90
2023-05-05T11:33:40.460Z,99.90
2023-05-05T11:36:12.301Z,99.90
2023-05-05T11:38:52.519Z,99.90
2023-05-05T11:41:32.265Z,99.90
2023-05-05T11:44:14.541Z,99.90
2023-05-05T11:47:05.008Z,99.90
2023-05-05T11:49:37.761Z,99.90
2023-05-05T11:52:10.625Z,99.90
2023-05-05T11:54:47.996Z,99.90
2023-05-05T11:57:17.785Z,99.90
2023-05-05T11:59:57.240Z,99.90
2023-05-05T12:02:31.361Z,99.90
2023-05-05T12:05:01.447Z,99.90
2023-05-05T12:07:31.208Z,99.90
2023-05-05T12:09:59.640Z,99.90
2023-05-05T12:12:36.357Z,99.90
2023-05-05T12:15:06.552Z,99.90
2023-05-05T12:17:42.616Z,99.90
2023-05-05T12:20:12.418Z,99.90
2023-05-05T12:22:40.855Z,99.90
2023-05-05T12:25:09.708Z,99.90
2023-05-05T12:27:37.255Z,99.90
2023-05-05T12:30:16.761Z,99.90
2023-05-05T12:32:45.332Z,99.90
2023-05-05T12:35:13.882Z,99.90
2023-05-05T12:37:42.620Z,99.90
2023-05-05T12:40:44.243Z,99.90
2023-05-05T12:43:33.666Z,99.90
2023-05-05T12:46:13.146Z,99.90
2023-05-05T12:48:46.410Z,99.90
2023-05-05T12:51:23.511Z,99.90
2023-05-05T12:54:11.951Z,99.90
2023-05-05T12:56:42.009Z,99.90
2023-05-05T12:59:12.614Z,59.60
2023-05-05T13:01:53.943Z,38.00
2023-05-05T13:04:23.481Z,82.30
2023-05-05T13:07:13.092Z,59.10
2023-05-05T13:09:41.275Z,48.00
2023-05-05T13:12:12.057Z,72.30
2023-05-05T13:14:40.958Z,6.20
2023-05-05T13:17:09.044Z,1.00
2023-05-05T13:19:42.197Z,1.00
2023-05-05T13:22:10.538Z,1.00
2023-05-05T13:24:50.763Z,1.00
2023-05-05T13:27:20.845Z,1.00
2023-05-05T13:29:48.401Z,1.00
2023-05-05T13:32:16.220Z,1.00
2023-05-05T13:34:44.361Z,1.00
2023-05-05T13:37:11.936Z,1.00
2023-05-05T13:39:39.271Z,1.00
2023-05-05T13:42:07.283Z,1.00
2023-05-05T13:44:35.746Z,1.00
2023-05-05T13:47:03.952Z,1.00
2023-05-05T13:49:32.448Z,1.00
2023-05-05T13:52:01.745Z,1.00
2023-05-05T13:54:29.538Z,1.00
2023-05-05T13:56:58.243Z,1.00
2023-05-05T13:59:26.463Z,1.00
2023-05-05T14:01:54.375Z,1.00
2023-05-05T14:04:22.983Z,1.00
2023-05-05T14:06:54.903Z,1.00
2023-05-05T14:09:22.603Z,1.00
2023-05-05T14:11:50.140Z,1.00
2023-05-05T14:14:18.243Z,1.00
2023-05-05T14:19:17.921Z,1.00
2023-05-05T14:21:45.580Z,1.00
2023-05-05T14:24:13.114Z,1.00
2023-05-05T14:26:40.919Z,1.00
2023-05-05T14:29:08.448Z,1.00
2023-05-05T14:31:37.262Z,1.00
2023-05-05T14:34:05.425Z,1.00
2023-05-05T14:36:33.088Z,1.00
2023-05-05T14:39:00.823Z,1.00
2023-05-05T14:41:28.588Z,1.00
2023-05-05T14:43:57.346Z,1.00
2023-05-05T14:46:26.548Z,1.00
2023-05-05T14:48:54.227Z,1.00
2023-05-05T14:51:22.044Z,1.00
2023-05-05T14:53:50.071Z,1.00
2023-05-05T14:56:18.095Z,1.00
2023-05-05T14:58:47.310Z,1.00
2023-05-05T15:01:16.303Z,1.00
2023-05-05T15:03:44.058Z,1.00
2023-05-05T15:06:11.832Z,1.00
2023-05-05T15:08:39.370Z,1.00
2023-05-05T15:11:07.224Z,1.00
2023-05-05T15:13:36.478Z,1.00
2023-05-05T15:16:04.472Z,1.00
2023-05-05T15:18:31.897Z,1.00
2023-05-05T15:20:59.920Z,1.00
2023-05-05T15:23:27.272Z,1.00
2023-05-05T15:25:55.391Z,1.00
2023-05-05T15:28:22.755Z,1.00
2023-05-05T15:30:50.970Z,1.00
2023-05-05T15:33:18.607Z,1.00
2023-05-05T15:35:46.760Z,1.00
2023-05-05T15:38:14.586Z,1.00
2023-05-05T15:40:45.009Z,1.00
2023-05-05T15:43:13.302Z,1.00
2023-05-05T15:45:41.856Z,1.00
2023-05-05T15:48:09.450Z,1.00
2023-05-05T15:50:37.405Z,1.00
2023-05-05T15:53:05.204Z,1.00
2023-05-05T15:55:33.257Z,1.00
2023-05-05T15:58:01.172Z,1.00
2023-05-05T16:00:29.706Z,1.00
2023-05-05T16:02:57.401Z,1.00
2023-05-05T16:05:25.427Z,1.00
2023-05-05T16:07:53.873Z,1.00
2023-05-05T16:10:22.106Z,1.00
2023-05-05T16:12:49.881Z,1.00
2023-05-05T16:15:17.730Z,1.00
2023-05-05T16:17:45.291Z,1.00
2023-05-05T16:20:13.352Z,1.00
2023-05-05T16:22:41.979Z,1.00
2023-05-05T16:25:10.701Z,1.00
2023-05-05T16:27:38.994Z,1.00
2023-05-05T16:30:08.958Z,1.00
2023-05-05T16:32:36.711Z,1.00
2023-05-05T16:35:07.444Z,1.00
2023-05-05T16:37:35.177Z,1.00
2023-05-05T16:40:05.794Z,1.00
2023-05-05T16:42:33.433Z,1.00
2023-05-05T16:45:01.481Z,1.00
2023-05-05T16:47:29.005Z,1.00
2023-05-05T16:49:56.762Z,1.00
2023-05-05T16:52:24.136Z,1.00
2023-05-05T16:54:55.772Z,1.00
2023-05-05T16:57:23.874Z,1.00
2023-05-05T16:59:51.920Z,1.00
2023-05-05T17:02:19.429Z,1.00
2023-05-05T17:04:47.328Z,1.00
2023-05-05T17:07:15.351Z,1.00
2023-05-05T17:09:43.159Z,1.00
2023-05-05T17:12:11.621Z,1.00
2023-05-05T17:14:40.229Z,1.00
2023-05-05T17:17:07.870Z,1.00
2023-05-05T17:19:36.015Z,1.00
2023-05-05T17:22:03.827Z,1.00
2023-05-05T17:24:31.673Z,1.00
2023-05-05T17:26:59.709Z,1.00
2023-05-05T17:29:27.205Z,1.00
2023-05-05T17:31:55.477Z,1.00
2023-05-05T17:34:23.229Z,1.00
2023-05-05T17:36:50.573Z,1.00
2023-05-05T17:39:18.185Z,1.00
2023-05-05T17:41:45.609Z,1.00
2023-05-05T17:44:13.462Z,1.00
2023-05-05T17:46:40.859Z,1.00
2023-05-05T17:49:08.545Z,1.00
2023-05-05T17:51:36.203Z,1.00
2023-05-05T17:54:05.412Z,1.00
2023-05-05T17:56:35.210Z,1.00
2023-05-05T18:01:30.814Z,1.00
2023-05-05T18:03:58.901Z,1.00
2023-05-05T18:06:27.081Z,1.30
2023-05-05T18:08:54.817Z,31.00
2023-05-05T18:11:26.877Z,4.70
2023-05-05T18:13:56.167Z,1.00
2023-05-05T18:16:23.533Z,9.00
2023-05-05T18:18:51.696Z,10.10
2023-05-05T18:21:19.916Z,1.00
2023-05-05T18:23:47.876Z,1.00
2023-05-05T18:26:15.675Z,11.40
2023-05-05T18:28:43.283Z,25.70
2023-05-05T18:31:11.058Z,45.90
2023-05-05T18:33:39.045Z,43.20
2023-05-05T18:36:08.075Z,99.90
2023-05-05T18:38:36.658Z,99.40
2023-05-05T18:41:04.323Z,57.80
2023-05-05T18:43:32.222Z,95.40
2023-05-05T18:45:59.835Z,55.70
2023-05-05T18:48:27.972Z,55.30
2023-05-05T18:51:00.317Z,46.30
2023-05-05T18:53:29.025Z,20.20
2023-05-05T18:55:57.160Z,21.00
2023-05-05T18:58:25.274Z,42.30
2023-05-05T19:00:52.906Z,92.50
2023-05-05T19:05:49.735Z,34.50
2023-05-05T19:08:17.323Z,35.30
2023-05-05T19:15:40.840Z,39.20
2023-05-05T19:18:08.788Z,34.40
2023-05-05T19:20:38.827Z,36.30
2023-05-05T19:23:07.231Z,37.70
2023-05-05T19:25:34.884Z,48.20
2023-05-05T19:28:02.805Z,25.60
2023-05-05T19:30:30.330Z,53.30
2023-05-05T19:32:58.297Z,21.30
2023-05-05T19:35:26.242Z,29.40
2023-05-05T19:37:56.068Z,59.80
2023-05-05T19:40:23.840Z,54.80
2023-05-05T19:42:52.056Z,70.40
2023-05-05T19:45:19.871Z,64.10
2023-05-05T19:47:47.634Z,79.50
2023-05-05T19:50:18.246Z,88.70
2023-05-05T19:52:45.881Z,99.90
2023-05-05T19:55:14.984Z,90.50
2023-05-05T19:57:42.590Z,92.10
2023-05-05T20:00:11.196Z,99.90
2023-05-05T20:02:39.522Z,99.90
2023-05-05T20:05:07.346Z,99.90
2023-05-05T20:07:35.984Z,99.90
2023-05-05T20:10:03.527Z,99.90
2023-05-05T20:12:31.364Z,99.90
2023-05-05T20:15:02.785Z,99.90
2023-05-05T20:17:30.778Z,99.90
2023-05-05T20:19:58.304Z,99.90
2023-05-05T20:22:26.726Z,99.90
2023-05-05T20:24:54.590Z,99.90
2023-05-05T20:27:22.389Z,99.90
2023-05-05T20:29:50.191Z,99.90
2023-05-05T20:32:20.717Z,99.90
2023-05-05T20:34:50.244Z,99.90
2023-05-05T20:37:28.373Z,99.90
2023-05-05T20:40:02.749Z,99.90
2023-05-05T20:42:33.740Z,99.90
2023-05-05T20:47:35.614Z,99.90
2023-05-05T20:50:05.852Z,99.90
2023-05-05T20:55:07.395Z,99.90
2023-05-05T21:00:06.662Z,99.90
2023-05-05T21:05:07.286Z,99.90
2023-05-05T21:10:05.690Z,99.90
2023-05-05T21:12:36.088Z,99.90
2023-05-05T21:15:05.578Z,99.90
2023-05-05T21:22:31.211Z,99.90
2023-05-05T21:25:19.827Z,99.90
2023-05-05T21:27:48.909Z,99.90
2023-05-05T21:30:16.922Z,99.90
2023-05-05T21:32:45.962Z,99.90
2023-05-05T21:35:15.600Z,99.90
2023-05-05T21:37:46.019Z,99.90
2023-05-05T22:02:44.596Z,99.90
2023-05-05T22:10:09.188Z,1.00
2023-05-05T22:27:25.708Z,1.00
2023-05-05T22:47:09.997Z,1.00
2023-05-05T22:59:29.743Z,1.00
2023-05-05T23:01:57.307Z,1.00
2023-05-05T23:04:24.706Z,1.00
2023-05-05T23:09:19.876Z,1.00
2023-05-05T23:14:16.945Z,1.00
2023-05-05T23:19:13.675Z,1.00
2023-05-05T23:21:51.960Z,1.00
2023-05-05T23:24:20.358Z,1.00
2023-05-05T23:29:15.767Z,1.00
2023-05-05T23:31:43.323Z,1.00
2023-05-05T23:53:56.949Z,1.00
2023-05-05T23:58:53.230Z,1.00
